aviador You're here:

KLXT Decoded Metar

LEES SUMMIT MUNI in MO, USA
Report Time2017-05-23 13:53:00
UTC Time2017-05-23 14:43:22
Flight Rules vfr VFR
Wind340° at 11 kt
W.Decomp.*RWY 36: 10.2 kt HW 4.1 kt LCW
RWY 29: 7.4 kt HW 8.2 kt RCW
W.Rank340° ranks 14
Current wind is above 340° avg. (9.2)
Visibility9999 m
Phenomena:Light Rain
Clouds:Few 050 Hf
Broken 070 Hf
Overcast 085 Hf
Expected CloudBase > 400 ft AGL from Temp-Dew spread
Ceiling7,000 ft
Temp12°C (ISA -1)
Dew Point11°C (94% RH)
AAT8.4°C
QNH1012 hPa
Density Alt1,099 ft
Elevation1,004 ft
Report Wrong Elevation
Raw Report
KLXT 231353Z AUTO 34011KT 9SM -RA FEW050 BKN070 OVC085 12/11 A2989
RMK AO2 SLP119 P0001 T01220111=

Extra information for KLXT:More info

Metar Taf Metar & Taf Last 4 Metars F.Rules Stats Wind Profile Meteogram Temp Stats Airport Information Weather charts Add Link Nearby VenuesMetar ALERT Operation Metar Decoded Social comments

AIRNAV info for KLXT